Aviation Digital Data Service (ADDS)

Output produced by METARs form (0642 UTC 21 January 2019)
found at http://www.aviationweather.gov/metar/data/
 
Forecast for: TLPL (HEWANORRA INTL , LC)
Text: TAF TLPL 210500Z 2106/2206 09015KT 9999 SCT025
Forecast period: 0600 UTC 21 January 2019 to 0600 UTC 22 January 2019
Forecast type: FROM: standard forecast or significant change
Winds: from the E (90 degrees) at 17 MPH (15 knots; 7.7 m/s)
Visibility: 6 or more miles 10+ km)
Ceiling: at least 12,000 feet AGL
Clouds: scattered clouds at 2500 feet AGL
Weather: no significant weather forecast for this period